createdAt,value
2018-05-06T00:00:53.699Z,10.72
2018-05-06T00:03:22.038Z,10.70
2018-05-06T00:05:50.408Z,10.67
2018-05-06T00:08:20.266Z,10.54
2018-05-06T00:10:48.606Z,10.59
2018-05-06T00:13:16.969Z,10.81
2018-05-06T00:15:46.077Z,10.80
2018-05-06T00:18:15.207Z,10.69
2018-05-06T00:20:43.531Z,10.53
2018-05-06T00:23:11.854Z,10.50
2018-05-06T00:25:40.212Z,10.39
2018-05-06T00:28:08.558Z,10.42
2018-05-06T00:30:36.892Z,10.57
2018-05-06T00:33:05.234Z,10.50
2018-05-06T00:35:34.371Z,10.49
2018-05-06T00:38:03.123Z,10.63
2018-05-06T00:40:31.876Z,10.71
2018-05-06T00:43:00.222Z,10.61
2018-05-06T00:45:28.572Z,10.52
2018-05-06T00:47:56.899Z,10.44
2018-05-06T00:50:25.271Z,10.36
2018-05-06T00:52:53.610Z,10.26
2018-05-06T00:55:21.919Z,10.42
2018-05-06T00:57:50.277Z,10.64
2018-05-06T01:00:18.639Z,10.61
2018-05-06T01:02:46.967Z,10.66
2018-05-06T01:05:15.306Z,10.76
2018-05-06T01:07:43.657Z,10.64
2018-05-06T01:10:12.041Z,10.54
2018-05-06T01:12:40.759Z,10.53
2018-05-06T01:15:09.123Z,10.53
2018-05-06T01:17:37.484Z,10.64
2018-05-06T01:20:05.811Z,10.68
2018-05-06T01:22:34.163Z,10.75
2018-05-06T01:25:03.201Z,10.56
2018-05-06T01:27:31.550Z,10.53
2018-05-06T01:29:59.876Z,10.65
2018-05-06T01:32:28.994Z,10.52
2018-05-06T01:34:57.314Z,10.39
2018-05-06T01:37:25.653Z,10.39
2018-05-06T01:39:53.949Z,10.34
2018-05-06T01:42:22.303Z,10.27
2018-05-06T01:44:50.680Z,10.41
2018-05-06T01:47:19.001Z,10.53
2018-05-06T01:49:47.339Z,10.50
2018-05-06T01:52:15.671Z,10.38
2018-05-06T01:54:44.011Z,10.33
2018-05-06T01:57:12.340Z,10.23
2018-05-06T01:59:42.207Z,10.25
2018-05-06T02:02:10.551Z,10.12
2018-05-06T02:04:38.914Z,10.19
2018-05-06T02:07:08.635Z,10.28
2018-05-06T02:09:36.957Z,10.22
2018-05-06T02:12:05.335Z,10.13
2018-05-06T02:14:33.669Z,10.04
2018-05-06T02:17:01.991Z,10.04
2018-05-06T02:19:30.301Z,9.95
2018-05-06T02:21:59.393Z,9.84
2018-05-06T02:24:28.731Z,9.80
2018-05-06T02:26:57.034Z,9.72
2018-05-06T02:29:25.379Z,9.69
2018-05-06T02:31:54.123Z,9.66
2018-05-06T02:34:23.673Z,9.57
2018-05-06T02:36:51.970Z,9.52
2018-05-06T02:39:20.427Z,9.42
2018-05-06T02:41:50.448Z,9.46
2018-05-06T02:44:18.823Z,9.34
2018-05-06T02:46:47.622Z,9.26
2018-05-06T02:49:16.225Z,9.27
2018-05-06T02:51:44.583Z,9.22
2018-05-06T02:54:13.243Z,9.23
2018-05-06T02:56:42.467Z,9.30
2018-05-06T02:59:11.100Z,9.20
2018-05-06T03:01:39.545Z,9.15
2018-05-06T03:04:08.958Z,9.06
2018-05-06T03:06:37.326Z,9.06
2018-05-06T03:09:06.448Z,9.13
2018-05-06T03:11:34.885Z,9.15
2018-05-06T03:14:03.335Z,9.06
2018-05-06T03:16:32.793Z,9.05
2018-05-06T03:19:01.155Z,9.11
2018-05-06T03:21:29.823Z,9.27
2018-05-06T03:23:58.173Z,9.26
2018-05-06T03:26:27.295Z,9.22
2018-05-06T03:28:57.066Z,9.22
2018-05-06T03:31:25.535Z,9.27
2018-05-06T03:33:54.115Z,9.15
2018-05-06T03:36:22.441Z,9.13
2018-05-06T03:38:50.802Z,9.05
2018-05-06T03:41:19.910Z,9.01
2018-05-06T03:43:48.243Z,9.19
2018-05-06T03:46:16.583Z,9.24
2018-05-06T03:48:44.915Z,9.23
2018-05-06T03:51:13.277Z,9.28
2018-05-06T03:53:41.587Z,9.35
2018-05-06T03:59:54.179Z,9.25
2018-05-06T04:02:40.814Z,9.18
2018-05-06T04:05:09.917Z,9.38
2018-05-06T04:07:38.259Z,9.50
2018-05-06T04:10:06.576Z,9.49
2018-05-06T04:12:35.684Z,9.48
2018-05-06T04:15:04.002Z,9.57
2018-05-06T04:17:32.354Z,9.61
2018-05-06T04:20:00.659Z,9.65
2018-05-06T04:22:28.999Z,9.61
2018-05-06T04:24:57.346Z,9.62
2018-05-06T04:27:26.080Z,9.61
2018-05-06T04:29:54.405Z,9.59
2018-05-06T04:32:23.530Z,9.63
2018-05-06T04:34:51.849Z,9.65
2018-05-06T04:37:20.197Z,9.65
2018-05-06T04:39:48.562Z,9.78
2018-05-06T04:42:16.880Z,9.94
2018-05-06T04:44:45.260Z,10.12
2018-05-06T04:47:13.615Z,10.28
2018-05-06T04:49:41.956Z,10.36
2018-05-06T04:52:11.602Z,10.47
2018-05-06T04:54:39.976Z,10.71
2018-05-06T04:57:08.740Z,10.87
2018-05-06T04:59:37.107Z,11.09
2018-05-06T05:02:06.186Z,11.25
2018-05-06T05:04:34.540Z,11.32
2018-05-06T05:07:02.906Z,11.48
2018-05-06T05:09:31.291Z,11.67
2018-05-06T05:12:06.534Z,11.92
2018-05-06T05:14:35.011Z,11.99
2018-05-06T05:17:03.317Z,12.10
2018-05-06T05:19:31.898Z,12.26
2018-05-06T05:22:00.218Z,12.33
2018-05-06T05:24:28.566Z,12.24
2018-05-06T05:26:57.661Z,12.35
2018-05-06T05:29:26.066Z,12.37
2018-05-06T05:31:54.381Z,12.39
2018-05-06T05:34:22.802Z,12.57
2018-05-06T05:36:51.092Z,12.83
2018-05-06T05:39:19.418Z,12.88
2018-05-06T05:41:47.740Z,12.90
2018-05-06T05:44:16.080Z,12.76
2018-05-06T05:46:44.425Z,12.71
2018-05-06T05:49:13.750Z,12.74
2018-05-06T05:51:42.373Z,12.85
2018-05-06T05:54:11.506Z,12.87
2018-05-06T05:56:39.852Z,12.68
2018-05-06T05:59:08.199Z,12.70
2018-05-06T06:01:37.307Z,12.77
2018-05-06T06:04:06.034Z,12.86
2018-05-06T06:06:35.595Z,12.98
2018-05-06T06:09:05.562Z,13.04
2018-05-06T06:11:33.909Z,13.06
2018-05-06T06:14:02.254Z,13.09
2018-05-06T06:16:33.415Z,13.15
2018-05-06T06:19:02.630Z,13.10
2018-05-06T06:21:31.042Z,12.97
2018-05-06T06:23:59.418Z,13.04
2018-05-06T06:26:27.838Z,13.19
2018-05-06T06:28:56.984Z,13.23
2018-05-06T06:31:25.333Z,13.13
2018-05-06T06:33:54.470Z,13.17
2018-05-06T06:36:22.850Z,13.28
2018-05-06T06:38:51.206Z,13.35
2018-05-06T06:41:19.590Z,13.37
2018-05-06T06:43:48.861Z,13.40
2018-05-06T06:46:17.208Z,13.45
2018-05-06T06:48:46.369Z,13.54
2018-05-06T06:51:14.695Z,13.63
2018-05-06T06:53:43.841Z,13.79
2018-05-06T06:56:12.213Z,13.89
2018-05-06T06:58:40.532Z,14.01
2018-05-06T07:01:08.926Z,14.10
2018-05-06T07:03:38.035Z,14.12
2018-05-06T07:06:07.541Z,14.27
2018-05-06T07:08:36.668Z,14.23
2018-05-06T07:11:05.087Z,14.33
2018-05-06T07:13:34.982Z,14.26
2018-05-06T07:16:04.897Z,14.31
2018-05-06T07:18:33.269Z,14.41
2018-05-06T07:21:01.598Z,14.49
2018-05-06T07:23:30.733Z,14.36
2018-05-06T07:25:59.543Z,14.45
2018-05-06T07:28:27.877Z,14.52
2018-05-06T07:30:56.217Z,14.55
2018-05-06T07:33:25.446Z,14.66
2018-05-06T07:35:54.843Z,14.79
2018-05-06T07:38:23.595Z,14.93
2018-05-06T07:40:51.906Z,14.92
2018-05-06T07:43:20.987Z,15.18
2018-05-06T07:45:50.142Z,15.25
2018-05-06T07:48:18.442Z,15.28
2018-05-06T07:50:46.893Z,15.27
2018-05-06T07:53:15.205Z,15.46
2018-05-06T07:55:43.586Z,15.52
2018-05-06T07:58:12.699Z,15.57
2018-05-06T08:00:41.054Z,15.69
2018-05-06T08:03:09.402Z,15.79
2018-05-06T08:05:37.751Z,15.90
2018-05-06T08:08:06.055Z,16.00
2018-05-06T08:10:34.431Z,15.84
2018-05-06T08:13:02.812Z,15.94
2018-05-06T08:15:31.536Z,16.04
2018-05-06T08:18:00.704Z,16.12
2018-05-06T08:20:29.028Z,16.04
2018-05-06T08:22:57.405Z,16.06
2018-05-06T08:25:25.723Z,16.08
2018-05-06T08:27:54.065Z,16.20
2018-05-06T08:30:23.545Z,16.28
2018-05-06T08:32:51.927Z,16.38
2018-05-06T08:35:21.103Z,16.48
2018-05-06T08:37:49.448Z,16.56
2018-05-06T08:40:17.795Z,16.65
2018-05-06T08:42:46.141Z,16.66
2018-05-06T08:45:14.474Z,16.84
2018-05-06T08:47:42.866Z,16.70
2018-05-06T08:50:11.208Z,16.84
2018-05-06T08:52:39.584Z,16.87
2018-05-06T08:55:08.661Z,16.83
2018-05-06T08:57:37.809Z,16.70
2018-05-06T09:00:06.156Z,16.83
2018-05-06T09:02:34.545Z,16.93
2018-05-06T09:05:02.937Z,17.01
2018-05-06T09:07:31.297Z,16.89
2018-05-06T09:09:59.635Z,17.05
2018-05-06T09:12:27.981Z,17.26
2018-05-06T09:14:56.324Z,17.22
2018-05-06T09:17:24.696Z,17.26
2018-05-06T09:19:53.068Z,17.37
2018-05-06T09:22:22.200Z,17.31
2018-05-06T09:24:50.557Z,17.30
2018-05-06T09:27:18.868Z,17.29
2018-05-06T09:29:47.240Z,17.53
2018-05-06T09:32:16.400Z,17.42
2018-05-06T09:34:44.686Z,17.51
2018-05-06T09:37:13.020Z,17.58
2018-05-06T09:39:41.390Z,17.60
2018-05-06T09:42:09.703Z,17.62
2018-05-06T09:44:38.842Z,17.73
2018-05-06T09:47:07.154Z,17.51
2018-05-06T09:49:35.527Z,17.67
2018-05-06T09:52:03.887Z,17.68
2018-05-06T09:54:32.232Z,17.88
2018-05-06T09:57:00.558Z,17.89
2018-05-06T09:59:28.919Z,18.10
2018-05-06T10:01:57.297Z,18.19
2018-05-06T10:04:25.619Z,17.94
2018-05-06T10:06:54.778Z,18.01
2018-05-06T10:09:23.136Z,18.07
2018-05-06T10:11:51.586Z,18.09
2018-05-06T10:14:20.296Z,18.13
2018-05-06T10:16:48.632Z,18.33
2018-05-06T10:19:17.808Z,18.37
2018-05-06T10:21:46.136Z,18.37
2018-05-06T10:24:14.496Z,18.53
2018-05-06T10:26:42.878Z,18.50
2018-05-06T10:29:11.203Z,18.17
2018-05-06T10:31:39.563Z,18.34
2018-05-06T10:34:07.880Z,18.51
2018-05-06T10:36:36.236Z,18.58
2018-05-06T10:39:04.644Z,18.46
2018-05-06T10:41:33.738Z,18.40
2018-05-06T10:44:02.940Z,18.60
2018-05-06T10:46:31.240Z,18.64
2018-05-06T10:48:59.617Z,18.65
2018-05-06T10:51:27.975Z,18.79
2018-05-06T10:53:57.185Z,18.44
2018-05-06T10:56:28.776Z,18.50
2018-05-06T10:58:58.197Z,18.64
2018-05-06T11:01:27.251Z,18.75
2018-05-06T11:03:55.662Z,18.61
2018-05-06T11:06:24.846Z,18.67
2018-05-06T11:08:53.980Z,18.76
2018-05-06T11:11:23.123Z,18.85
2018-05-06T11:13:52.067Z,18.98
2018-05-06T11:16:20.728Z,18.72
2018-05-06T11:18:49.503Z,18.76
2018-05-06T11:21:18.161Z,18.85
2018-05-06T11:23:46.824Z,19.02
2018-05-06T11:26:15.974Z,19.14
2018-05-06T11:28:44.285Z,18.99
2018-05-06T11:31:12.927Z,19.13
2018-05-06T11:33:41.324Z,19.31
2018-05-06T11:36:09.869Z,19.50
2018-05-06T11:38:38.210Z,19.49
2018-05-06T11:41:08.814Z,19.61
2018-05-06T11:43:37.179Z,19.34
2018-05-06T11:46:05.540Z,19.36
2018-05-06T11:48:34.772Z,19.46
2018-05-06T11:51:03.395Z,19.47
2018-05-06T11:53:32.201Z,19.33
2018-05-06T11:56:00.651Z,19.39
2018-05-06T11:58:29.463Z,19.40
2018-05-06T12:00:58.375Z,19.41
2018-05-06T12:03:26.852Z,19.55
2018-05-06T12:05:55.413Z,19.66
2018-05-06T12:08:23.729Z,19.82
2018-05-06T12:10:52.625Z,19.60
2018-05-06T12:13:22.878Z,19.62
2018-05-06T12:15:51.655Z,19.85
2018-05-06T12:18:21.661Z,19.79
2018-05-06T12:20:51.410Z,20.09
2018-05-06T12:23:19.834Z,20.03
2018-05-06T12:25:48.209Z,19.95
2018-05-06T12:28:16.556Z,20.10
2018-05-06T12:30:44.951Z,19.98
2018-05-06T12:33:13.271Z,20.08
2018-05-06T12:35:41.760Z,19.94
2018-05-06T12:38:10.869Z,19.79
2018-05-06T12:40:39.987Z,19.86
2018-05-06T12:43:08.340Z,19.75
2018-05-06T12:45:37.599Z,19.95
2018-05-06T12:48:05.976Z,19.92
2018-05-06T12:50:34.347Z,19.97
2018-05-06T12:53:02.695Z,20.09
2018-05-06T12:55:31.042Z,20.04
2018-05-06T12:57:59.364Z,20.19
2018-05-06T13:00:27.735Z,20.14
2018-05-06T13:02:56.079Z,20.18
2018-05-06T13:05:25.202Z,20.17
2018-05-06T13:07:53.578Z,20.51
2018-05-06T13:10:21.904Z,20.61
2018-05-06T13:12:50.270Z,20.68
2018-05-06T13:15:18.588Z,20.69
2018-05-06T13:17:46.938Z,20.67
2018-05-06T13:20:15.303Z,20.53
2018-05-06T13:22:43.618Z,20.67
2018-05-06T13:25:12.752Z,20.80
2018-05-06T13:27:41.058Z,20.93
2018-05-06T13:30:09.417Z,20.76
2018-05-06T13:32:37.722Z,20.70
2018-05-06T13:35:06.846Z,20.73
2018-05-06T13:37:35.978Z,20.75
2018-05-06T13:40:04.373Z,20.86
2018-05-06T13:42:32.722Z,20.93
2018-05-06T13:45:01.047Z,20.89
2018-05-06T13:47:29.384Z,20.91
2018-05-06T13:49:57.980Z,20.83
2018-05-06T13:52:26.182Z,20.86
2018-05-06T13:54:54.746Z,20.86
2018-05-06T13:57:23.364Z,20.81
2018-05-06T13:59:51.716Z,20.96
2018-05-06T14:04:47.784Z,20.99
2018-05-06T14:07:16.195Z,20.91
2018-05-06T14:09:44.536Z,20.90
2018-05-06T14:12:13.760Z,21.06
2018-05-06T14:14:42.446Z,21.03
2018-05-06T14:17:10.804Z,21.01
2018-05-06T14:19:40.137Z,20.98
2018-05-06T14:22:08.500Z,20.80
2018-05-06T14:24:37.192Z,20.89
2018-05-06T14:27:05.927Z,20.98
2018-05-06T14:29:34.535Z,21.00
2018-05-06T14:32:03.033Z,21.08
2018-05-06T14:34:32.117Z,21.04
2018-05-06T14:37:01.254Z,21.06
2018-05-06T14:39:29.655Z,20.99
2018-05-06T14:41:58.795Z,21.16
2018-05-06T14:44:27.894Z,21.18
2018-05-06T14:47:14.803Z,21.14
2018-05-06T14:49:43.905Z,21.18
2018-05-06T14:52:12.265Z,21.13
2018-05-06T14:54:41.397Z,20.97
2018-05-06T14:57:09.740Z,21.08
2018-05-06T14:59:38.873Z,21.17
2018-05-06T15:02:07.207Z,21.13
2018-05-06T15:04:36.343Z,21.15
2018-05-06T15:07:04.667Z,21.26
2018-05-06T15:09:32.990Z,21.24
2018-05-06T15:12:01.341Z,21.28
2018-05-06T15:14:37.278Z,21.39
2018-05-06T15:17:05.624Z,21.34
2018-05-06T15:19:33.940Z,21.32
2018-05-06T15:22:03.320Z,21.28
2018-05-06T15:24:32.283Z,21.26
2018-05-06T15:27:02.710Z,21.20
2018-05-06T15:32:05.977Z,21.31
2018-05-06T15:34:34.393Z,21.35
2018-05-06T15:37:11.667Z,21.28
2018-05-06T15:39:40.241Z,21.35
2018-05-06T15:42:08.816Z,21.46
2018-05-06T15:44:38.021Z,21.37
2018-05-06T15:47:06.629Z,21.35
2018-05-06T15:49:35.181Z,21.41
2018-05-06T15:52:04.910Z,21.41
2018-05-06T15:54:33.415Z,21.50
2018-05-06T15:57:02.282Z,21.39
2018-05-06T15:59:30.776Z,21.28
2018-05-06T16:04:59.831Z,21.25
2018-05-06T16:07:29.501Z,21.29
2018-05-06T16:09:57.945Z,21.42
2018-05-06T16:12:27.340Z,21.37
2018-05-06T16:14:56.720Z,21.45
2018-05-06T16:17:25.056Z,21.45
2018-05-06T16:19:53.585Z,21.37
2018-05-06T16:22:23.038Z,21.35
2018-05-06T16:24:52.283Z,21.41
2018-05-06T16:27:20.763Z,21.41
2018-05-06T16:29:49.108Z,21.41
2018-05-06T16:32:17.553Z,21.43
2018-05-06T16:34:46.825Z,21.46
2018-05-06T16:37:15.209Z,21.41
2018-05-06T16:39:44.429Z,21.36
2018-05-06T16:42:13.218Z,21.35
2018-05-06T16:44:42.549Z,21.37
2018-05-06T16:47:13.244Z,21.37
2018-05-06T16:49:47.865Z,21.42
2018-05-06T16:52:18.650Z,21.43
2018-05-06T16:54:47.020Z,21.45
2018-05-06T16:57:15.760Z,21.45
2018-05-06T16:59:44.528Z,21.43
2018-05-06T17:02:13.968Z,21.46
2018-05-06T17:04:42.784Z,21.38
2018-05-06T17:07:11.570Z,21.51
2018-05-06T17:09:40.245Z,21.73
2018-05-06T17:12:08.680Z,21.75
2018-05-06T17:14:37.120Z,21.39
2018-05-06T17:17:05.512Z,21.56
2018-05-06T17:19:42.551Z,21.50
2018-05-06T17:22:11.342Z,21.35
2018-05-06T17:24:39.655Z,21.33
2018-05-06T17:27:08.988Z,21.24
2018-05-06T17:29:38.132Z,21.20
2018-05-06T17:32:06.554Z,21.17
2018-05-06T17:34:34.949Z,21.23
2018-05-06T17:37:04.041Z,21.20
2018-05-06T17:39:33.201Z,21.11
2018-05-06T17:42:01.766Z,21.20
2018-05-06T17:44:31.072Z,21.23
2018-05-06T17:47:00.179Z,21.08
2018-05-06T17:49:28.552Z,21.02
2018-05-06T17:51:57.745Z,21.00
2018-05-06T17:54:26.097Z,20.87
2018-05-06T17:56:54.515Z,20.80
2018-05-06T17:59:22.837Z,20.66
2018-05-06T18:01:54.232Z,20.46
2018-05-06T18:04:22.575Z,20.28
2018-05-06T18:06:50.988Z,20.14
2018-05-06T18:09:19.333Z,19.98
2018-05-06T18:11:48.566Z,19.78
2018-05-06T18:14:18.236Z,19.61
2018-05-06T18:16:46.648Z,19.41
2018-05-06T18:19:15.269Z,19.17
2018-05-06T18:21:43.732Z,19.02
2018-05-06T18:24:12.058Z,18.87
2018-05-06T18:26:40.808Z,18.56
2018-05-06T18:29:10.155Z,18.51
2018-05-06T18:31:38.481Z,18.35
2018-05-06T18:34:06.915Z,18.12
2018-05-06T18:36:35.253Z,18.03
2018-05-06T18:39:05.228Z,17.80
2018-05-06T18:41:33.748Z,17.74
2018-05-06T18:44:02.903Z,17.53
2018-05-06T18:46:32.043Z,17.56
2018-05-06T18:49:01.186Z,17.32
2018-05-06T18:51:30.628Z,17.10
2018-05-06T18:54:00.587Z,17.12
2018-05-06T18:56:30.198Z,17.12
2018-05-06T18:58:58.552Z,16.86
2018-05-06T19:01:27.377Z,16.66
2018-05-06T19:03:55.766Z,16.64
2018-05-06T19:06:24.136Z,16.44
2018-05-06T19:08:52.934Z,16.38
2018-05-06T19:11:21.247Z,16.47
2018-05-06T19:13:50.649Z,16.28
2018-05-06T19:16:18.982Z,16.20
2018-05-06T19:18:48.471Z,16.05
2018-05-06T19:21:16.782Z,15.89
2018-05-06T19:23:45.219Z,15.81
2018-05-06T19:26:13.643Z,15.78
2018-05-06T19:28:42.041Z,15.85
2018-05-06T19:31:10.351Z,15.90
2018-05-06T19:33:40.119Z,15.81
2018-05-06T19:36:09.227Z,15.59
2018-05-06T19:38:37.965Z,15.56
2018-05-06T19:41:06.293Z,15.50
2018-05-06T19:43:35.399Z,15.54
2018-05-06T19:46:04.530Z,15.41
2018-05-06T19:48:33.741Z,15.48
2018-05-06T19:51:03.022Z,15.49
2018-05-06T19:53:32.162Z,15.46
2018-05-06T19:56:00.522Z,15.27
2018-05-06T19:58:28.848Z,15.03
2018-05-06T20:00:58.080Z,15.04
2018-05-06T20:03:26.487Z,15.00
2018-05-06T20:05:54.826Z,15.06
2018-05-06T20:08:23.173Z,14.87
2018-05-06T20:10:52.371Z,14.75
2018-05-06T20:13:21.489Z,14.82
2018-05-06T20:15:49.950Z,14.79
2018-05-06T20:18:19.918Z,14.64
2018-05-06T20:20:48.304Z,14.66
2018-05-06T20:23:16.676Z,14.36
2018-05-06T20:25:46.140Z,14.48
2018-05-06T20:28:14.647Z,14.47
2018-05-06T20:30:43.069Z,14.50
2018-05-06T20:33:11.554Z,14.57
2018-05-06T20:35:39.922Z,14.52
2018-05-06T20:38:08.314Z,14.35
2018-05-06T20:40:37.827Z,14.05
2018-05-06T20:43:07.322Z,13.95
2018-05-06T20:45:35.652Z,13.95
2018-05-06T20:48:03.968Z,13.84
2018-05-06T20:50:32.724Z,13.64
2018-05-06T20:53:01.041Z,13.53
2018-05-06T20:55:30.162Z,13.46
2018-05-06T20:57:58.644Z,13.39
2018-05-06T21:00:26.998Z,13.46
2018-05-06T21:02:56.102Z,13.58
2018-05-06T21:05:25.250Z,13.71
2018-05-06T21:07:53.591Z,13.70
2018-05-06T21:10:21.941Z,13.50
2018-05-06T21:12:51.068Z,13.70
2018-05-06T21:15:19.423Z,13.74
2018-05-06T21:17:48.569Z,13.64
2018-05-06T21:20:18.492Z,13.51
2018-05-06T21:22:46.851Z,13.22
2018-05-06T21:25:15.208Z,12.97
2018-05-06T21:27:43.644Z,12.73
2018-05-06T21:30:11.978Z,12.59
2018-05-06T21:32:40.308Z,12.58
2018-05-06T21:35:08.674Z,12.91
2018-05-06T21:37:37.020Z,13.16
2018-05-06T21:40:05.368Z,13.06
2018-05-06T21:42:33.730Z,12.90
2018-05-06T21:45:02.860Z,12.75
2018-05-06T21:47:31.974Z,12.82
2018-05-06T21:50:00.346Z,12.77
2018-05-06T21:52:28.694Z,12.86
2018-05-06T21:54:57.062Z,12.76
2018-05-06T21:57:26.162Z,12.82
2018-05-06T21:59:55.304Z,12.91
2018-05-06T22:02:23.633Z,12.76
2018-05-06T22:04:52.730Z,12.63
2018-05-06T22:07:21.909Z,12.49
2018-05-06T22:09:50.234Z,12.37
2018-05-06T22:12:18.614Z,12.37
2018-05-06T22:14:46.964Z,12.48
2018-05-06T22:17:16.099Z,12.33
2018-05-06T22:19:44.467Z,12.24
2018-05-06T22:22:12.779Z,12.12
2018-05-06T22:24:41.335Z,12.04
2018-05-06T22:27:09.705Z,12.19
2018-05-06T22:29:38.046Z,12.07
2018-05-06T22:32:07.143Z,12.36
2018-05-06T22:34:37.029Z,12.39
2018-05-06T22:37:05.369Z,12.50
2018-05-06T22:39:33.701Z,12.48
2018-05-06T22:42:02.828Z,12.48
2018-05-06T22:44:31.152Z,12.32
2018-05-06T22:46:59.485Z,12.26
2018-05-06T22:49:27.836Z,12.21
2018-05-06T22:51:56.936Z,12.18
2018-05-06T22:54:26.074Z,12.16
2018-05-06T22:56:54.416Z,11.99
2018-05-06T22:59:22.773Z,11.81
2018-05-06T23:01:51.908Z,11.59
2018-05-06T23:04:20.215Z,11.44
2018-05-06T23:06:48.592Z,11.39
2018-05-06T23:09:17.028Z,11.32
2018-05-06T23:11:45.351Z,11.27
2018-05-06T23:14:13.721Z,11.39
2018-05-06T23:16:42.084Z,11.47
2018-05-06T23:19:10.440Z,11.49
2018-05-06T23:21:38.855Z,11.43
2018-05-06T23:24:07.211Z,11.35
2018-05-06T23:26:35.626Z,11.53
2018-05-06T23:29:03.925Z,11.98
2018-05-06T23:31:33.025Z,12.04
2018-05-06T23:34:02.149Z,11.99
2018-05-06T23:36:30.494Z,12.11
2018-05-06T23:38:59.629Z,12.05
2018-05-06T23:41:27.964Z,11.93
2018-05-06T23:43:56.341Z,11.92
2018-05-06T23:46:25.446Z,11.99
2018-05-06T23:48:54.595Z,11.88
2018-05-06T23:51:22.951Z,11.68
2018-05-06T23:53:51.283Z,11.42
2018-05-06T23:56:19.664Z,11.38
2018-05-06T23:58:48.751Z,11.41
